sensor_id;sensor_type;location;lat;lon;timestamp;pressure;altitude;pressure_sealevel;temperature;humidity
596;BME280;19946;49.306;11.350;2024-03-02T19:22:22;95002.53;;;6.50;100.00
596;BME280;19946;49.306;11.350;2024-03-02T19:25:26;95007.41;;;6.53;100.00
596;BME280;19946;49.306;11.350;2024-03-02T19:31:44;95028.81;;;6.54;100.00
596;BME280;19946;49.306;11.350;2024-03-02T19:34:46;95010.41;;;6.39;100.00
596;BME280;19946;49.306;11.350;2024-03-02T19:44:39;95003.38;;;6.41;100.00
596;BME280;19946;49.306;11.350;2024-03-02T19:47:43;94988.81;;;6.32;100.00
596;BME280;19946;49.306;11.350;2024-03-02T19:50:44;95000.69;;;6.43;100.00
596;BME280;19946;49.306;11.350;2024-03-02T19:53:44;95035.81;;;6.62;100.00
596;BME280;19946;49.306;11.350;2024-03-02T19:56:45;95029.22;;;6.49;100.00
596;BME280;19946;49.306;11.350;2024-03-02T19:59:46;95006.69;;;6.24;100.00
596;BME280;19946;49.306;11.350;2024-03-02T20:13:02;94987.59;;;6.17;100.00
596;BME280;19946;49.306;11.350;2024-03-02T20:19:29;94968.59;;;5.91;100.00
596;BME280;19946;49.306;11.350;2024-03-02T20:45:28;94997.53;;;5.83;100.00
596;BME280;19946;49.306;11.350;2024-03-02T21:35:51;95006.97;;;6.21;100.00
596;BME280;19946;49.306;11.350;2024-03-02T21:48:46;94933.69;;;5.78;100.00
596;BME280;19946;49.306;11.350;2024-03-02T21:51:51;94947.91;;;5.82;100.00
596;BME280;19946;49.306;11.350;2024-03-02T21:54:52;94954.91;;;6.00;100.00
596;BME280;19946;49.306;11.350;2024-03-02T22:47:13;94928.53;;;6.07;100.00
596;BME280;19946;49.306;11.350;2024-03-02T22:50:13;94885.88;;;5.68;100.00
596;BME280;19946;49.306;11.350;2024-03-02T22:53:14;94876.00;;;5.63;100.00
596;BME280;19946;49.306;11.350;2024-03-02T22:56:14;94938.00;;;5.87;100.00
596;BME280;19946;49.306;11.350;2024-03-02T22:59:15;94932.78;;;5.89;100.00
596;BME280;19946;49.306;11.350;2024-03-02T23:02:16;94907.47;;;5.75;100.00
596;BME280;19946;49.306;11.350;2024-03-02T23:05:17;94876.97;;;5.53;100.00
596;BME280;19946;49.306;11.350;2024-03-02T23:08:18;94843.63;;;5.33;100.00
596;BME280;19946;49.306;11.350;2024-03-02T23:11:18;94896.28;;;5.66;100.00
596;BME280;19946;49.306;11.350;2024-03-02T23:14:19;94888.84;;;5.63;100.00
596;BME280;19946;49.306;11.350;2024-03-02T23:17:25;94832.00;;;5.39;100.00
596;BME280;19946;49.306;11.350;2024-03-02T23:20:45;94898.41;;;5.80;100.00
596;BME280;19946;49.306;11.350;2024-03-02T23:23:46;94869.41;;;5.51;100.00
596;BME280;19946;49.306;11.350;2024-03-02T23:26:46;94879.94;;;5.58;100.00
596;BME280;19946;49.306;11.350;2024-03-02T23:29:47;94856.56;;;5.41;100.00
596;BME280;19946;49.306;11.350;2024-03-02T23:32:51;94834.72;;;5.28;100.00
596;BME280;19946;49.306;11.350;2024-03-02T23:35:54;94832.97;;;5.19;100.00
596;BME280;19946;49.306;11.350;2024-03-02T23:38:56;94920.06;;;5.68;100.00
596;BME280;19946;49.306;11.350;2024-03-02T23:41:58;94910.97;;;5.74;100.00
596;BME280;19946;49.306;11.350;2024-03-02T23:45:00;94819.59;;;5.15;100.00
596;BME280;19946;49.306;11.350;2024-03-02T23:48:03;94886.03;;;5.47;100.00
596;BME280;19946;49.306;11.350;2024-03-02T23:51:04;94815.16;;;5.07;100.00
596;BME280;19946;49.306;11.350;2024-03-02T23:54:07;94866.16;;;5.49;100.00
596;BME280;19946;49.306;11.350;2024-03-02T23:57:08;94830.53;;;5.27;100.00
